createdAt,value
2023-01-17T00:01:14.891Z,0.20
2023-01-17T00:04:00.021Z,0.40
2023-01-17T00:06:45.271Z,0.35
2023-01-17T00:09:31.294Z,0.40
2023-01-17T00:11:58.890Z,0.30
2023-01-17T00:14:27.382Z,0.25
2023-01-17T00:16:54.523Z,0.50
2023-01-17T00:19:39.841Z,0.30
2023-01-17T00:22:40.943Z,0.40
2023-01-17T00:25:31.091Z,0.40
2023-01-17T00:27:57.840Z,0.40
2023-01-17T00:30:24.999Z,0.50
2023-01-17T00:32:51.609Z,0.40
2023-01-17T00:35:19.924Z,0.57
2023-01-17T00:37:46.464Z,0.43
2023-01-17T00:40:13.283Z,0.50
2023-01-17T00:42:39.911Z,0.50
2023-01-17T00:45:25.470Z,0.50
2023-01-17T00:48:10.326Z,0.35
2023-01-17T00:50:56.461Z,0.50
2023-01-17T00:53:41.880Z,0.50
2023-01-17T00:56:27.012Z,0.60
2023-01-17T00:59:12.787Z,0.70
2023-01-17T01:01:58.165Z,0.65
2023-01-17T01:04:43.647Z,0.70
2023-01-17T01:07:29.119Z,0.63
2023-01-17T01:10:14.533Z,0.60
2023-01-17T01:12:59.956Z,0.50
2023-01-17T01:15:45.127Z,0.70
2023-01-17T01:18:30.401Z,0.57
2023-01-17T01:21:20.902Z,0.50
2023-01-17T01:24:06.136Z,0.50
2023-01-17T01:26:51.606Z,0.43
2023-01-17T01:29:37.127Z,0.50
2023-01-17T01:32:22.403Z,0.50
2023-01-17T01:34:49.086Z,0.50
2023-01-17T01:37:15.795Z,0.45
2023-01-17T01:39:42.439Z,0.60
2023-01-17T01:42:15.419Z,0.60
2023-01-17T01:44:47.691Z,0.60
2023-01-17T01:47:25.821Z,0.60
2023-01-17T01:49:52.885Z,0.70
2023-01-17T01:52:23.973Z,0.45
2023-01-17T01:54:57.790Z,0.68
2023-01-17T01:57:29.651Z,0.57
2023-01-17T02:00:02.273Z,0.80
2023-01-17T02:02:31.433Z,0.70
2023-01-17T02:04:59.470Z,0.60
2023-01-17T02:07:33.329Z,1.02
2023-01-17T02:10:00.737Z,0.90
2023-01-17T02:12:27.756Z,0.90
2023-01-17T02:14:54.454Z,0.90
2023-01-17T02:17:30.018Z,0.90
2023-01-17T02:20:09.129Z,1.10
2023-01-17T02:22:54.198Z,0.80
2023-01-17T02:25:35.959Z,1.08
2023-01-17T02:28:34.777Z,0.90
2023-01-17T02:31:27.454Z,1.17
2023-01-17T02:34:43.516Z,1.35
2023-01-17T02:37:34.978Z,1.25
2023-01-17T02:40:12.381Z,1.40
2023-01-17T02:42:45.582Z,1.35
2023-01-17T02:45:19.554Z,1.30
2023-01-17T02:47:46.502Z,1.42
2023-01-17T02:50:18.258Z,1.60
2023-01-17T02:52:44.874Z,1.50
2023-01-17T02:55:26.570Z,1.27
2023-01-17T02:57:59.101Z,1.40
2023-01-17T03:00:41.966Z,1.13
2023-01-17T03:03:14.564Z,1.67
2023-01-17T03:06:11.636Z,1.55
2023-01-17T03:08:46.008Z,1.35
2023-01-17T03:11:13.671Z,1.38
2023-01-17T03:13:41.297Z,2.08
2023-01-17T03:16:19.808Z,1.35
2023-01-17T03:18:46.605Z,1.43
2023-01-17T03:21:13.522Z,1.30
2023-01-17T03:23:40.277Z,1.77
2023-01-17T03:26:07.327Z,1.30
2023-01-17T03:28:34.167Z,1.23
2023-01-17T03:31:01.159Z,1.30
2023-01-17T03:33:27.937Z,1.25
2023-01-17T03:35:58.097Z,1.40
2023-01-17T03:38:30.507Z,1.30
2023-01-17T03:40:57.193Z,1.30
2023-01-17T03:43:23.953Z,1.20
2023-01-17T03:45:54.233Z,1.40
2023-01-17T03:48:21.798Z,1.42
2023-01-17T03:50:51.640Z,1.48
2023-01-17T03:53:18.375Z,1.20
2023-01-17T03:55:48.291Z,1.30
2023-01-17T03:58:16.397Z,1.40
2023-01-17T04:00:43.693Z,2.03
2023-01-17T04:03:10.966Z,1.35
2023-01-17T04:05:37.620Z,1.10
2023-01-17T04:08:04.531Z,1.40
2023-01-17T04:10:31.180Z,1.10
2023-01-17T04:12:57.789Z,1.17
2023-01-17T04:15:24.429Z,1.80
2023-01-17T04:17:51.296Z,1.30
2023-01-17T04:20:29.597Z,0.90
2023-01-17T04:22:56.344Z,1.20
2023-01-17T04:25:23.145Z,1.33
2023-01-17T04:27:49.852Z,1.05
2023-01-17T04:30:16.621Z,1.08
2023-01-17T04:32:43.330Z,1.00
2023-01-17T04:35:10.295Z,1.40
2023-01-17T04:37:37.597Z,1.33
2023-01-17T04:40:05.888Z,1.00
2023-01-17T04:42:32.729Z,1.33
2023-01-17T04:44:59.403Z,1.20
2023-01-17T04:47:26.051Z,1.10
2023-01-17T04:49:53.696Z,1.20
2023-01-17T04:52:21.123Z,1.00
2023-01-17T04:54:49.577Z,1.17
2023-01-17T04:57:17.509Z,1.03
2023-01-17T04:59:44.950Z,1.10
2023-01-17T05:02:12.057Z,1.63
2023-01-17T05:04:38.882Z,1.20
2023-01-17T05:07:06.261Z,1.33
2023-01-17T05:09:33.142Z,1.17
2023-01-17T05:11:59.860Z,0.90
2023-01-17T05:14:27.148Z,1.13
2023-01-17T05:16:54.525Z,1.00
2023-01-17T05:19:21.785Z,1.10
2023-01-17T05:21:48.451Z,1.00
2023-01-17T05:24:15.371Z,1.10
2023-01-17T05:26:43.286Z,1.15
2023-01-17T05:29:10.766Z,0.90
2023-01-17T05:31:37.764Z,1.10
2023-01-17T05:34:05.038Z,1.20
2023-01-17T05:36:31.742Z,0.95
2023-01-17T05:38:58.456Z,0.90
2023-01-17T05:41:25.136Z,1.17
2023-01-17T05:43:51.807Z,1.25
2023-01-17T05:46:18.694Z,0.90
2023-01-17T05:48:45.426Z,1.08
2023-01-17T05:51:12.170Z,0.88
2023-01-17T05:53:38.868Z,1.40
2023-01-17T05:56:05.778Z,1.35
2023-01-17T05:58:32.438Z,1.35
2023-01-17T06:00:59.187Z,1.50
2023-01-17T06:03:26.034Z,1.10
2023-01-17T06:05:52.675Z,1.33
2023-01-17T06:08:19.349Z,1.15
2023-01-17T06:10:46.037Z,1.10
2023-01-17T06:13:15.426Z,1.30
2023-01-17T06:18:12.926Z,1.20
2023-01-17T06:20:40.401Z,1.00
2023-01-17T06:23:10.466Z,1.50
2023-01-17T06:25:39.045Z,1.30
2023-01-17T06:28:08.756Z,1.30
2023-01-17T06:30:36.129Z,1.20
2023-01-17T06:33:03.497Z,2.03
2023-01-17T06:35:30.947Z,1.40
2023-01-17T06:37:59.814Z,1.55
2023-01-17T06:40:28.092Z,1.38
2023-01-17T06:42:55.069Z,1.40
2023-01-17T06:45:21.820Z,1.80
2023-01-17T06:47:48.485Z,1.30
2023-01-17T06:50:15.994Z,2.00
2023-01-17T06:52:43.254Z,1.55
2023-01-17T06:55:10.452Z,1.80
2023-01-17T06:57:37.234Z,1.60
2023-01-17T07:00:04.817Z,1.40
2023-01-17T07:02:31.634Z,1.88
2023-01-17T07:04:58.299Z,1.30
2023-01-17T07:07:25.054Z,1.67
2023-01-17T07:09:51.778Z,1.60
2023-01-17T07:12:18.471Z,1.15
2023-01-17T07:14:45.191Z,1.40
2023-01-17T07:17:11.893Z,1.52
2023-01-17T07:19:38.591Z,1.40
2023-01-17T07:22:05.350Z,1.70
2023-01-17T07:24:32.925Z,1.40
2023-01-17T07:26:59.683Z,1.50
2023-01-17T07:29:36.980Z,1.27
2023-01-17T07:32:04.218Z,1.10
2023-01-17T07:34:30.977Z,1.20
2023-01-17T07:36:57.893Z,1.08
2023-01-17T07:39:24.563Z,1.10
2023-01-17T07:41:51.295Z,1.20
2023-01-17T07:44:18.161Z,1.33
2023-01-17T07:46:44.836Z,1.70
2023-01-17T07:49:11.600Z,1.33
2023-01-17T07:51:38.385Z,1.50
2023-01-17T07:54:05.153Z,1.25
2023-01-17T07:56:34.196Z,1.88
2023-01-17T07:59:01.814Z,1.45
2023-01-17T08:01:28.687Z,2.75
2023-01-17T08:03:55.473Z,1.50
2023-01-17T08:06:26.181Z,1.60
2023-01-17T08:08:55.212Z,1.40
2023-01-17T08:11:22.094Z,0.95
2023-01-17T08:13:48.899Z,1.00
2023-01-17T08:16:15.767Z,1.70
2023-01-17T08:18:42.478Z,1.20
2023-01-17T08:21:16.909Z,1.10
2023-01-17T08:23:47.335Z,1.17
2023-01-17T08:26:21.384Z,1.48
2023-01-17T08:28:56.991Z,1.40
2023-01-17T08:31:24.647Z,1.30
2023-01-17T08:33:51.446Z,1.48
2023-01-17T08:36:18.165Z,1.45
2023-01-17T08:38:44.992Z,1.30
2023-01-17T08:41:13.065Z,1.30
2023-01-17T08:43:39.802Z,1.35
2023-01-17T08:46:06.587Z,1.30
2023-01-17T08:48:33.356Z,1.60
2023-01-17T08:51:03.619Z,2.15
2023-01-17T08:53:30.585Z,1.42
2023-01-17T08:55:59.082Z,1.35
2023-01-17T08:58:30.271Z,1.40
2023-01-17T09:01:06.227Z,1.20
2023-01-17T09:03:34.700Z,1.38
2023-01-17T09:06:10.276Z,1.27
2023-01-17T09:08:37.007Z,1.30
2023-01-17T09:11:12.596Z,1.80
2023-01-17T09:13:40.008Z,2.97
2023-01-17T09:16:07.783Z,1.23
2023-01-17T09:18:36.269Z,1.40
2023-01-17T09:21:15.060Z,1.52
2023-01-17T09:23:42.865Z,1.55
2023-01-17T09:26:22.184Z,1.60
2023-01-17T09:31:17.571Z,1.40
2023-01-17T09:33:44.896Z,2.03
2023-01-17T09:36:11.664Z,1.20
2023-01-17T09:38:40.266Z,1.40
2023-01-17T09:41:33.112Z,1.65
2023-01-17T09:44:18.381Z,1.50
2023-01-17T09:46:48.067Z,1.50
2023-01-17T09:49:48.022Z,1.55
2023-01-17T09:52:23.862Z,1.70
2023-01-17T09:54:51.694Z,1.80
2023-01-17T09:57:42.958Z,1.40
2023-01-17T10:00:31.862Z,1.35
2023-01-17T10:03:23.826Z,1.33
2023-01-17T10:05:58.328Z,1.33
2023-01-17T10:08:59.249Z,1.40
2023-01-17T10:11:42.424Z,1.30
2023-01-17T10:14:33.370Z,1.33
2023-01-17T10:17:32.230Z,1.30
2023-01-17T10:20:17.907Z,1.50
2023-01-17T10:23:25.287Z,1.60
2023-01-17T10:25:54.725Z,1.65
2023-01-17T10:31:13.033Z,2.13
2023-01-17T10:33:46.587Z,1.70
2023-01-17T10:36:40.346Z,1.88
2023-01-17T10:39:20.560Z,1.60
2023-01-17T10:41:58.194Z,1.50
2023-01-17T10:44:36.990Z,1.55
2023-01-17T10:47:24.133Z,1.20
2023-01-17T10:49:58.529Z,1.85
2023-01-17T10:52:37.681Z,1.45
2023-01-17T10:55:39.264Z,1.45
2023-01-17T10:58:11.374Z,2.35
2023-01-17T11:00:54.148Z,1.67
2023-01-17T11:03:21.166Z,1.40
2023-01-17T11:06:19.074Z,1.30
2023-01-17T11:09:00.124Z,1.10
2023-01-17T11:11:36.319Z,1.40
2023-01-17T11:14:16.991Z,1.60
2023-01-17T11:16:44.031Z,1.45
2023-01-17T11:19:10.669Z,1.17
2023-01-17T11:21:39.887Z,1.30
2023-01-17T11:24:12.293Z,1.45
2023-01-17T11:26:48.675Z,1.40
2023-01-17T11:29:27.487Z,1.40
2023-01-17T11:31:56.339Z,1.70
2023-01-17T11:34:32.123Z,1.58
2023-01-17T11:37:17.303Z,1.50
2023-01-17T11:39:48.114Z,1.70
2023-01-17T11:42:35.213Z,1.48
2023-01-17T11:45:28.351Z,1.60
2023-01-17T11:48:11.712Z,1.40
2023-01-17T11:50:58.689Z,1.40
2023-01-17T11:53:32.368Z,1.58
2023-01-17T11:56:09.394Z,1.58
2023-01-17T11:58:39.400Z,1.40
2023-01-17T12:01:29.082Z,1.35
2023-01-17T12:04:01.918Z,1.50
2023-01-17T12:06:44.770Z,1.55
2023-01-17T12:09:45.208Z,1.80
2023-01-17T12:12:59.874Z,1.73
2023-01-17T12:15:32.433Z,1.95
2023-01-17T12:18:17.384Z,1.63
2023-01-17T12:20:53.243Z,1.33
2023-01-17T12:23:47.489Z,2.40
2023-01-17T12:26:19.755Z,1.63
2023-01-17T12:29:18.561Z,1.67
2023-01-17T12:32:04.172Z,1.77
2023-01-17T12:34:39.018Z,1.77
2023-01-17T12:37:08.322Z,2.00
2023-01-17T12:39:44.476Z,1.77
2023-01-17T12:42:26.095Z,1.95
2023-01-17T12:45:09.937Z,1.50
2023-01-17T12:47:47.944Z,1.60
2023-01-17T12:50:29.398Z,1.50
2023-01-17T12:53:10.691Z,1.80
2023-01-17T12:55:49.922Z,2.55
2023-01-17T12:58:22.730Z,1.95
2023-01-17T13:00:59.524Z,2.00
2023-01-17T13:03:57.799Z,1.75
2023-01-17T13:06:54.106Z,1.90
2023-01-17T13:09:23.476Z,1.55
2023-01-17T13:11:57.683Z,1.67
2023-01-17T13:14:24.865Z,2.00
2023-01-17T13:16:59.778Z,1.80
2023-01-17T13:19:41.626Z,1.90
2023-01-17T13:22:17.679Z,1.63
2023-01-17T13:24:49.985Z,2.33
2023-01-17T13:27:35.262Z,2.13
2023-01-17T13:30:22.149Z,1.77
2023-01-17T13:32:58.055Z,1.90
2023-01-17T13:35:33.566Z,1.52
2023-01-17T13:38:27.482Z,2.20
2023-01-17T13:41:07.106Z,2.03
2023-01-17T13:43:38.238Z,1.80
2023-01-17T13:46:06.745Z,2.00
2023-01-17T13:48:33.447Z,2.37
2023-01-17T13:51:03.917Z,1.80
2023-01-17T13:53:39.633Z,1.73
2023-01-17T13:56:30.239Z,1.98
2023-01-17T13:59:02.909Z,1.88
2023-01-17T14:01:34.755Z,2.00
2023-01-17T14:04:04.263Z,2.05
2023-01-17T14:09:06.032Z,2.00
2023-01-17T14:11:37.255Z,34.60
2023-01-17T14:14:34.856Z,1.85
2023-01-17T14:17:26.611Z,2.35
2023-01-17T14:19:57.435Z,2.00
2023-01-17T14:22:27.364Z,2.15
2023-01-17T14:25:11.814Z,2.13
2023-01-17T14:27:55.004Z,2.15
2023-01-17T14:30:22.475Z,2.10
2023-01-17T14:33:01.513Z,1.75
2023-01-17T14:35:32.646Z,2.10
2023-01-17T14:38:03.064Z,1.60
2023-01-17T14:40:32.929Z,2.08
2023-01-17T14:43:16.222Z,8.73
2023-01-17T14:45:43.703Z,1.70
2023-01-17T14:48:22.552Z,1.80
2023-01-17T14:50:52.258Z,1.42
2023-01-17T14:53:28.191Z,1.77
2023-01-17T14:55:56.814Z,1.50
2023-01-17T14:58:34.708Z,1.57
2023-01-17T15:01:05.319Z,1.50
2023-01-17T15:03:42.019Z,1.40
2023-01-17T15:06:18.283Z,1.52
2023-01-17T15:08:45.589Z,1.48
2023-01-17T15:11:25.850Z,1.40
2023-01-17T15:13:57.529Z,1.67
2023-01-17T15:16:25.881Z,1.40
2023-01-17T15:18:54.032Z,1.55
2023-01-17T15:21:27.316Z,1.75
2023-01-17T15:24:03.763Z,1.75
2023-01-17T15:26:37.262Z,2.05
2023-01-17T15:29:12.479Z,2.15
2023-01-17T15:31:42.791Z,2.65
2023-01-17T15:34:27.317Z,2.83
2023-01-17T15:36:58.070Z,3.45
2023-01-17T15:39:30.383Z,3.65
2023-01-17T15:41:59.708Z,3.83
2023-01-17T15:44:31.122Z,3.53
2023-01-17T15:47:04.146Z,2.88
2023-01-17T15:49:31.300Z,3.05
2023-01-17T15:52:15.311Z,3.30
2023-01-17T15:54:56.042Z,3.85
2023-01-17T15:57:37.198Z,4.18
2023-01-17T16:00:09.896Z,4.85
2023-01-17T16:02:36.652Z,10.45
2023-01-17T16:05:23.506Z,8.60
2023-01-17T16:08:02.803Z,5.88
2023-01-17T16:10:32.014Z,8.30
2023-01-17T16:12:59.657Z,12.43
2023-01-17T16:15:27.378Z,13.43
2023-01-17T16:18:32.393Z,14.20
2023-01-17T16:21:19.453Z,13.75
2023-01-17T16:23:58.934Z,10.68
2023-01-17T16:26:25.755Z,7.95
2023-01-17T16:28:52.518Z,8.48
2023-01-17T16:31:19.311Z,7.20
2023-01-17T16:33:48.920Z,8.02
2023-01-17T16:36:16.853Z,9.75
2023-01-17T16:38:49.660Z,13.25
2023-01-17T16:41:16.363Z,12.32
2023-01-17T16:43:43.124Z,11.73
2023-01-17T16:46:11.575Z,10.55
2023-01-17T16:48:38.325Z,10.23
2023-01-17T16:51:06.611Z,10.70
2023-01-17T16:53:33.319Z,17.58
2023-01-17T16:56:07.644Z,12.30
2023-01-17T16:58:34.402Z,11.68
2023-01-17T17:01:01.109Z,12.07
2023-01-17T17:03:27.863Z,10.45
2023-01-17T17:05:56.850Z,11.70
2023-01-17T17:08:24.294Z,9.65
2023-01-17T17:10:51.162Z,11.38
2023-01-17T17:13:18.061Z,12.63
2023-01-17T17:15:45.000Z,10.98
2023-01-17T17:18:16.563Z,11.98
2023-01-17T17:20:43.674Z,11.50
2023-01-17T17:23:10.665Z,12.30
2023-01-17T17:25:38.353Z,12.73
2023-01-17T17:28:06.296Z,12.57
2023-01-17T17:30:33.539Z,13.85
2023-01-17T17:33:00.409Z,13.25
2023-01-17T17:35:27.330Z,13.27
2023-01-17T17:37:54.501Z,14.90
2023-01-17T17:40:21.320Z,15.30
2023-01-17T17:42:47.915Z,15.60
2023-01-17T17:45:14.668Z,15.55
2023-01-17T17:47:41.330Z,16.27
2023-01-17T17:50:08.862Z,15.43
2023-01-17T17:52:35.632Z,16.35
2023-01-17T17:55:02.556Z,16.20
2023-01-17T17:57:29.193Z,14.98
2023-01-17T17:59:56.877Z,13.98
2023-01-17T18:02:23.586Z,14.32
2023-01-17T18:04:50.349Z,13.25
2023-01-17T18:07:17.111Z,14.07
2023-01-17T18:09:43.889Z,13.43
2023-01-17T18:12:10.659Z,13.85
2023-01-17T18:14:37.501Z,14.88
2023-01-17T18:17:04.102Z,15.10
2023-01-17T18:19:30.759Z,15.38
2023-01-17T18:21:58.210Z,15.93
2023-01-17T18:24:26.940Z,16.83
2023-01-17T18:26:56.977Z,16.88
2023-01-17T18:29:24.784Z,16.25
2023-01-17T18:31:52.685Z,16.20
2023-01-17T18:34:23.928Z,15.15
2023-01-17T18:36:51.988Z,15.95
2023-01-17T18:39:25.291Z,14.95
2023-01-17T18:41:53.963Z,12.35
2023-01-17T18:44:22.321Z,12.23
2023-01-17T18:46:50.413Z,11.50
2023-01-17T18:49:19.307Z,10.65
2023-01-17T18:51:50.737Z,11.50
2023-01-17T18:54:19.213Z,10.88
2023-01-17T18:56:46.062Z,10.85
2023-01-17T18:59:14.095Z,11.18
2023-01-17T19:01:44.604Z,24.40
2023-01-17T19:04:13.853Z,18.77
2023-01-17T19:06:42.974Z,17.80
2023-01-17T19:09:11.801Z,19.38
2023-01-17T19:11:38.750Z,19.30
2023-01-17T19:14:06.951Z,22.50
2023-01-17T19:16:36.520Z,18.63
2023-01-17T19:19:05.661Z,17.67
2023-01-17T19:21:32.548Z,17.13
2023-01-17T19:23:59.951Z,19.45
2023-01-17T19:26:27.615Z,20.38
2023-01-17T19:29:05.268Z,18.55
2023-01-17T19:31:35.740Z,23.15
2023-01-17T19:34:02.500Z,22.45
2023-01-17T19:36:34.509Z,21.35
2023-01-17T19:39:05.316Z,20.42
2023-01-17T19:41:35.317Z,18.80
2023-01-17T19:44:10.430Z,18.15
2023-01-17T19:46:38.585Z,19.88
2023-01-17T19:49:07.510Z,20.58
2023-01-17T19:51:34.513Z,18.35
2023-01-17T19:54:01.849Z,19.50
2023-01-17T19:56:29.738Z,18.38
2023-01-17T19:59:00.879Z,21.88
2023-01-17T20:01:30.268Z,23.52
2023-01-17T20:03:58.631Z,21.73
2023-01-17T20:06:29.048Z,22.90
2023-01-17T20:08:59.316Z,20.40
2023-01-17T20:11:27.253Z,22.90
2023-01-17T20:13:56.223Z,20.40
2023-01-17T20:16:24.629Z,18.80
2023-01-17T20:18:51.856Z,17.60
2023-01-17T20:21:21.558Z,18.35
2023-01-17T20:23:50.310Z,18.45
2023-01-17T20:26:20.411Z,19.15
2023-01-17T20:28:48.905Z,20.88
2023-01-17T20:31:18.291Z,20.63
2023-01-17T20:33:47.081Z,22.77
2023-01-17T20:36:16.086Z,19.65
2023-01-17T20:38:44.171Z,17.90
2023-01-17T20:41:19.674Z,16.30
2023-01-17T20:43:48.689Z,19.50
2023-01-17T20:46:16.879Z,16.98
2023-01-17T20:48:45.546Z,18.25
2023-01-17T20:51:13.511Z,16.73
2023-01-17T20:53:44.671Z,16.88
2023-01-17T20:56:13.843Z,14.80
2023-01-17T20:58:41.226Z,13.82
2023-01-17T21:01:09.986Z,16.27
2023-01-17T21:03:38.240Z,15.20
2023-01-17T21:06:11.570Z,13.40
2023-01-17T21:08:41.201Z,11.95
2023-01-17T21:11:10.566Z,14.25
2023-01-17T21:16:03.999Z,11.52
2023-01-17T21:18:32.024Z,11.05
2023-01-17T21:21:08.017Z,11.88
2023-01-17T21:23:36.178Z,11.20
2023-01-17T21:26:03.840Z,10.95
2023-01-17T21:28:33.026Z,14.20
2023-01-17T21:31:00.123Z,13.70
2023-01-17T21:33:29.347Z,13.77
2023-01-17T21:36:07.813Z,13.82
2023-01-17T21:38:34.506Z,11.97
2023-01-17T21:41:01.232Z,12.90
2023-01-17T21:43:31.261Z,14.43
2023-01-17T21:46:04.839Z,13.75
2023-01-17T21:48:31.698Z,13.73
2023-01-17T21:51:06.193Z,13.60
2023-01-17T21:53:35.023Z,15.60
2023-01-17T21:56:25.204Z,13.63
2023-01-17T21:58:54.945Z,14.02
2023-01-17T22:01:24.215Z,13.35
2023-01-17T22:06:21.268Z,18.67
2023-01-17T22:08:48.524Z,18.13
2023-01-17T22:11:19.063Z,19.88
2023-01-17T22:13:46.568Z,16.05
2023-01-17T22:16:19.391Z,17.52
2023-01-17T22:18:46.713Z,17.42
2023-01-17T22:21:17.511Z,18.17
2023-01-17T22:23:53.039Z,17.25
2023-01-17T22:26:36.523Z,15.57
2023-01-17T22:29:20.112Z,18.00
2023-01-17T22:31:56.995Z,17.77
2023-01-17T22:34:23.953Z,16.55
2023-01-17T22:37:12.113Z,15.77
2023-01-17T22:39:57.457Z,18.33
2023-01-17T22:43:16.789Z,16.58
2023-01-17T22:45:47.220Z,17.60
2023-01-17T22:48:13.891Z,18.23
2023-01-17T22:50:40.510Z,18.35
2023-01-17T22:53:07.247Z,17.63
2023-01-17T22:55:33.968Z,15.95
2023-01-17T22:58:01.215Z,17.95
2023-01-17T23:00:27.795Z,15.85
2023-01-17T23:02:54.538Z,17.15
2023-01-17T23:05:22.876Z,18.23
2023-01-17T23:07:50.775Z,18.73
2023-01-17T23:10:37.385Z,15.25
2023-01-17T23:13:04.049Z,16.92
2023-01-17T23:15:49.237Z,15.50
2023-01-17T23:18:34.481Z,15.82
2023-01-17T23:21:01.150Z,12.02
2023-01-17T23:23:27.867Z,13.70
2023-01-17T23:26:00.265Z,13.20
2023-01-17T23:28:26.941Z,11.73
2023-01-17T23:30:53.595Z,14.10
2023-01-17T23:33:20.253Z,14.45
2023-01-17T23:35:46.960Z,16.40
2023-01-17T23:38:33.829Z,16.30
2023-01-17T23:41:20.241Z,14.68
2023-01-17T23:43:57.743Z,15.23
2023-01-17T23:46:25.978Z,15.77
2023-01-17T23:48:53.080Z,15.40
2023-01-17T23:51:19.799Z,15.98
2023-01-17T23:53:46.488Z,15.93
2023-01-17T23:56:23.082Z,14.05
2023-01-17T23:58:49.803Z,17.67
